Time,TemperatureF,DewpointF,PressureIn,WindDirection,WindDirectionDegrees,WindSpeedMPH,WindSpeedGustMPH,Humidity,HourlyPrecipIn,Conditions,Clouds,dailyrainin,SolarRadiationWatts/m^2,SoftwareType,DateUTC
2013-02-16 00:03:00,15.0,10.2,30.42,North,360,0.0,0.0,81,0.00,,,0.00,0,WeatherTracker,2013-02-16 06:03:00,
2013-02-16 00:08:00,14.8,10.0,30.42,North,360,0.0,0.0,81,0.00,,,0.00,0,WeatherTracker,2013-02-16 06:08:00,
2013-02-16 00:13:00,14.8,10.3,30.42,North,360,0.0,0.0,82,0.00,,,0.00,0,WeatherTracker,2013-02-16 06:13:00,
2013-02-16 00:18:00,14.7,10.2,30.41,North,360,0.0,0.0,82,0.00,,,0.00,0,WeatherTracker,2013-02-16 06:18:00,
2013-02-16 00:23:00,14.6,10.1,30.41,North,360,0.0,0.0,82,0.00,,,0.00,0,WeatherTracker,2013-02-16 06:23:00,
2013-02-16 00:28:00,14.4,9.9,30.41,North,360,0.0,0.0,82,0.00,,,0.00,0,WeatherTracker,2013-02-16 06:28:00,
2013-02-16 00:33:00,14.2,9.7,30.41,North,360,0.0,0.0,82,0.00,,,0.00,0,WeatherTracker,2013-02-16 06:33:00,
2013-02-16 00:38:00,14.0,9.8,30.41,North,360,0.0,0.0,83,0.00,,,0.00,0,WeatherTracker,2013-02-16 06:38:00,
2013-02-16 00:44:00,13.9,9.7,30.42,North,360,0.0,0.0,83,0.00,,,0.00,0,WeatherTracker,2013-02-16 06:44:00,
2013-02-16 00:49:00,13.7,9.5,30.41,North,360,0.0,0.0,83,0.00,,,0.00,0,WeatherTracker,2013-02-16 06:49:00,
2013-02-16 00:54:00,14.0,10.1,30.41,North,360,0.0,0.0,84,0.00,,,0.00,0,WeatherTracker,2013-02-16 06:54:00,
2013-02-16 00:59:00,13.9,9.7,30.41,North,360,0.0,0.0,83,0.00,,,0.00,0,WeatherTracker,2013-02-16 06:59:00,
2013-02-16 01:04:00,13.5,9.3,30.41,North,360,0.0,0.0,83,0.00,,,0.00,0,WeatherTracker,2013-02-16 07:04:00,
2013-02-16 01:09:00,13.5,9.6,30.41,North,360,1.0,0.0,84,0.00,,,0.00,0,WeatherTracker,2013-02-16 07:09:00,
2013-02-16 01:14:00,13.4,9.5,30.41,North,360,0.0,0.0,84,0.00,,,0.00,0,WeatherTracker,2013-02-16 07:14:00,
2013-02-16 01:19:00,13.4,9.5,30.41,North,360,0.0,0.0,84,0.00,,,0.00,0,WeatherTracker,2013-02-16 07:19:00,
2013-02-16 01:24:00,13.2,9.3,30.41,North,360,0.0,0.0,84,0.00,,,0.00,0,WeatherTracker,2013-02-16 07:24:00,
2013-02-16 01:29:00,13.2,9.3,30.41,North,360,0.0,0.0,84,0.00,,,0.00,0,WeatherTracker,2013-02-16 07:29:00,
2013-02-16 01:34:00,13.2,9.6,30.41,North,360,0.0,0.0,85,0.00,,,0.00,0,WeatherTracker,2013-02-16 07:34:00,
2013-02-16 01:39:00,13.1,9.5,30.40,North,360,1.0,0.0,85,0.00,,,0.00,0,WeatherTracker,2013-02-16 07:39:00,
2013-02-16 01:44:00,13.0,9.4,30.40,North,360,0.0,0.0,85,0.00,,,0.00,0,WeatherTracker,2013-02-16 07:44:00,
2013-02-16 01:49:00,13.1,9.5,30.40,North,360,0.0,0.0,85,0.00,,,0.00,0,WeatherTracker,2013-02-16 07:49:00,
2013-02-16 01:54:00,13.0,9.4,30.40,North,360,0.0,0.0,85,0.00,,,0.00,0,WeatherTracker,2013-02-16 07:54:00,
2013-02-16 01:59:00,12.9,9.3,30.40,North,360,0.0,0.0,85,0.00,,,0.00,0,WeatherTracker,2013-02-16 07:59:00,
2013-02-16 02:04:00,12.8,9.2,30.39,North,360,0.0,0.0,85,0.00,,,0.00,0,WeatherTracker,2013-02-16 08:04:00,
2013-02-16 02:09:00,12.6,9.0,30.39,North,360,0.0,0.0,85,0.00,,,0.00,0,WeatherTracker,2013-02-16 08:09:00,
2013-02-16 02:14:00,12.4,8.8,30.39,North,360,0.0,0.0,85,0.00,,,0.00,0,WeatherTracker,2013-02-16 08:14:00,
2013-02-16 02:19:00,12.2,8.8,30.39,North,360,1.0,0.0,86,0.00,,,0.00,0,WeatherTracker,2013-02-16 08:19:00,
2013-02-16 02:25:00,12.2,8.6,30.39,North,360,0.0,0.0,85,0.00,,,0.00,0,WeatherTracker,2013-02-16 08:25:00,
2013-02-16 02:30:00,12.1,8.5,30.39,North,360,0.0,0.0,85,0.00,,,0.00,0,WeatherTracker,2013-02-16 08:30:00,
2013-02-16 02:35:00,12.1,8.7,30.39,North,360,0.0,0.0,86,0.00,,,0.00,0,WeatherTracker,2013-02-16 08:35:00,
2013-02-16 02:40:00,11.9,8.5,30.39,North,360,2.0,0.0,86,0.00,,,0.00,0,WeatherTracker,2013-02-16 08:40:00,
2013-02-16 02:45:00,12.0,8.6,30.39,North,360,1.0,0.0,86,0.00,,,0.00,0,WeatherTracker,2013-02-16 08:45:00,
2013-02-16 02:50:00,12.3,8.9,30.38,North,360,2.0,0.0,86,0.00,,,0.00,0,WeatherTracker,2013-02-16 08:50:00,
2013-02-16 02:55:00,12.7,9.3,30.38,North,360,2.0,0.0,86,0.00,,,0.00,0,WeatherTracker,2013-02-16 08:55:00,
2013-02-16 03:00:00,13.0,9.6,30.38,North,355,2.0,0.0,86,0.00,,,0.00,0,WeatherTracker,2013-02-16 09:00:00,
2013-02-16 03:05:00,13.3,9.9,30.37,North,355,3.0,0.0,86,0.00,,,0.00,0,WeatherTracker,2013-02-16 09:05:00,
2013-02-16 03:10:00,13.7,10.3,30.37,North,355,0.0,0.0,86,0.00,,,0.00,0,WeatherTracker,2013-02-16 09:10:00,
2013-02-16 03:15:00,14.0,10.6,30.37,North,355,0.0,0.0,86,0.00,,,0.00,0,WeatherTracker,2013-02-16 09:15:00,
2013-02-16 03:20:00,14.2,10.8,30.37,North,355,1.0,0.0,86,0.00,,,0.00,0,WeatherTracker,2013-02-16 09:20:00,
2013-02-16 03:25:00,14.3,10.9,30.36,North,355,0.0,0.0,86,0.00,,,0.00,0,WeatherTracker,2013-02-16 09:25:00,
2013-02-16 03:30:00,14.4,11.0,30.36,North,355,1.0,0.0,86,0.00,,,0.00,0,WeatherTracker,2013-02-16 09:30:00,
2013-02-16 03:35:00,14.5,11.1,30.36,North,351,2.0,0.0,86,0.00,,,0.00,0,WeatherTracker,2013-02-16 09:35:00,
2013-02-16 03:40:00,14.9,11.5,30.36,WSW,246,5.0,0.0,86,0.00,,,0.00,0,WeatherTracker,2013-02-16 09:40:00,
2013-02-16 03:45:00,15.1,11.4,30.36,WSW,245,1.0,0.0,85,0.00,,,0.00,0,WeatherTracker,2013-02-16 09:45:00,
2013-02-16 03:50:00,15.2,11.5,30.35,WSW,246,4.0,0.0,85,0.00,,,0.00,0,WeatherTracker,2013-02-16 09:50:00,
2013-02-16 03:56:00,15.3,11.6,30.35,WSW,246,4.0,0.0,85,0.00,,,0.00,0,WeatherTracker,2013-02-16 09:56:00,
2013-02-16 04:01:00,15.5,11.5,30.35,WSW,246,4.0,0.0,84,0.00,,,0.00,0,WeatherTracker,2013-02-16 10:01:00,
2013-02-16 04:06:00,15.7,11.7,30.34,WSW,246,3.0,0.0,84,0.00,,,0.00,0,WeatherTracker,2013-02-16 10:06:00,
2013-02-16 04:11:00,15.8,11.6,30.34,WSW,246,3.0,0.0,83,0.00,,,0.00,0,WeatherTracker,2013-02-16 10:11:00,
2013-02-16 04:16:00,15.8,11.6,30.34,WSW,246,2.0,0.0,83,0.00,,,0.00,0,WeatherTracker,2013-02-16 10:16:00,
2013-02-16 04:21:00,15.9,11.7,30.34,WSW,246,2.0,0.0,83,0.00,,,0.00,0,WeatherTracker,2013-02-16 10:21:00,
2013-02-16 04:26:00,16.0,11.8,30.33,WSW,246,3.0,0.0,83,0.00,,,0.00,0,WeatherTracker,2013-02-16 10:26:00,
2013-02-16 04:31:00,16.1,11.9,30.33,WSW,247,3.0,0.0,83,0.00,,,0.00,0,WeatherTracker,2013-02-16 10:31:00,
2013-02-16 04:36:00,16.1,11.9,30.32,WSW,247,2.0,0.0,83,0.00,,,0.00,0,WeatherTracker,2013-02-16 10:36:00,
2013-02-16 04:41:00,16.4,12.2,30.32,WSW,246,2.0,0.0,83,0.00,,,0.00,0,WeatherTracker,2013-02-16 10:41:00,
2013-02-16 04:46:00,16.6,12.1,30.32,WSW,246,2.0,0.0,82,0.00,,,0.00,0,WeatherTracker,2013-02-16 10:46:00,
2013-02-16 04:51:00,16.8,12.3,30.32,WSW,245,2.0,0.0,82,0.00,,,0.00,0,WeatherTracker,2013-02-16 10:51:00,
2013-02-16 04:56:00,17.0,12.5,30.31,WSW,244,3.0,0.0,82,0.00,,,0.00,0,WeatherTracker,2013-02-16 10:56:00,
2013-02-16 05:01:00,17.1,12.6,30.30,WSW,241,3.0,0.0,82,0.00,,,0.00,0,WeatherTracker,2013-02-16 11:01:00,
2013-02-16 05:06:00,17.3,12.8,30.30,WSW,241,3.0,0.0,82,0.00,,,0.00,0,WeatherTracker,2013-02-16 11:06:00,
2013-02-16 05:11:00,17.5,13.0,30.30,SW,235,4.0,0.0,82,0.00,,,0.00,0,WeatherTracker,2013-02-16 11:11:00,
2013-02-16 05:16:00,17.7,12.9,30.30,SW,227,3.0,0.0,81,0.00,,,0.00,0,WeatherTracker,2013-02-16 11:16:00,
2013-02-16 05:21:00,17.8,13.0,30.31,SW,227,4.0,0.0,81,0.00,,,0.00,0,WeatherTracker,2013-02-16 11:21:00,
2013-02-16 05:26:00,17.9,13.1,30.31,SW,226,2.0,0.0,81,0.00,,,0.00,0,WeatherTracker,2013-02-16 11:26:00,
2013-02-16 05:31:00,18.0,13.2,30.31,SW,223,3.0,0.0,81,0.00,,,0.00,0,WeatherTracker,2013-02-16 11:31:00,
2013-02-16 05:36:00,18.1,13.3,30.30,SW,223,3.0,0.0,81,0.00,,,0.00,0,WeatherTracker,2013-02-16 11:36:00,
2013-02-16 05:42:00,18.4,13.6,30.29,SW,223,1.0,0.0,81,0.00,,,0.00,0,WeatherTracker,2013-02-16 11:42:00,
2013-02-16 05:47:00,18.6,13.8,30.29,SW,223,4.0,0.0,81,0.00,,,0.00,0,WeatherTracker,2013-02-16 11:47:00,
2013-02-16 05:52:00,18.9,14.1,30.29,SW,214,10.0,0.0,81,0.00,,,0.00,0,WeatherTracker,2013-02-16 11:52:00,
2013-02-16 05:57:00,19.3,14.2,30.29,SSW,213,5.0,0.0,80,0.00,,,0.00,0,WeatherTracker,2013-02-16 11:57:00,
2013-02-16 06:02:00,19.7,14.5,30.28,SW,217,5.0,0.0,80,0.00,,,0.00,0,WeatherTracker,2013-02-16 12:02:00,
2013-02-16 06:07:00,19.7,14.3,30.28,SW,215,4.0,0.0,79,0.00,,,0.00,0,WeatherTracker,2013-02-16 12:07:00,
2013-02-16 06:12:00,19.8,14.1,30.27,SW,214,5.0,0.0,78,0.00,,,0.00,0,WeatherTracker,2013-02-16 12:12:00,
2013-02-16 06:17:00,19.9,14.2,30.27,SW,214,3.0,0.0,78,0.00,,,0.00,0,WeatherTracker,2013-02-16 12:17:00,
2013-02-16 06:22:00,20.0,14.3,30.27,SW,225,5.0,0.0,78,0.00,,,0.00,0,WeatherTracker,2013-02-16 12:22:00,
2013-02-16 06:27:00,20.2,14.5,30.26,SW,226,4.0,0.0,78,0.00,,,0.00,0,WeatherTracker,2013-02-16 12:27:00,
2013-02-16 06:32:00,20.3,14.3,30.26,SW,219,4.0,0.0,77,0.00,,,0.00,0,WeatherTracker,2013-02-16 12:32:00,
2013-02-16 06:37:00,20.6,14.3,30.26,SW,216,6.0,0.0,76,0.00,,,0.00,0,WeatherTracker,2013-02-16 12:37:00,
2013-02-16 06:42:00,20.7,14.4,30.26,SSW,210,3.0,0.0,76,0.00,,,0.00,0,WeatherTracker,2013-02-16 12:42:00,
2013-02-16 06:47:00,20.8,14.5,30.25,SW,214,3.0,0.0,76,0.00,,,0.00,0,WeatherTracker,2013-02-16 12:47:00,
2013-02-16 06:52:00,20.9,14.5,30.26,SSW,211,4.0,0.0,76,0.00,,,0.00,0,WeatherTracker,2013-02-16 12:52:00,
2013-02-16 06:57:00,21.0,14.6,30.26,SSW,212,1.0,0.0,76,0.00,,,0.00,0,WeatherTracker,2013-02-16 12:57:00,
2013-02-16 07:02:00,21.1,14.4,30.25,SSW,212,4.0,0.0,75,0.00,,,0.00,0,WeatherTracker,2013-02-16 13:02:00,
2013-02-16 07:07:00,21.3,14.6,30.25,SSW,206,5.0,0.0,75,0.00,,,0.00,0,WeatherTracker,2013-02-16 13:07:00,
2013-02-16 07:12:00,21.4,14.7,30.25,SSW,210,4.0,0.0,75,0.00,,,0.00,0,WeatherTracker,2013-02-16 13:12:00,
2013-02-16 07:17:00,21.5,14.8,30.25,SSW,209,10.0,0.0,75,0.00,,,0.00,0,WeatherTracker,2013-02-16 13:17:00,
2013-02-16 07:23:00,21.6,14.6,30.25,WSW,238,4.0,0.0,74,0.00,,,0.00,0,WeatherTracker,2013-02-16 13:23:00,
2013-02-16 07:28:00,21.7,15.0,30.24,SW,226,6.0,0.0,75,0.00,,,0.00,0,WeatherTracker,2013-02-16 13:28:00,
2013-02-16 07:33:00,21.7,15.3,30.24,SW,229,2.0,0.0,76,0.00,,,0.00,0,WeatherTracker,2013-02-16 13:33:00,
2013-02-16 07:38:00,21.5,15.4,30.24,SSW,198,15.0,0.0,77,0.00,,,0.00,5,WeatherTracker,2013-02-16 13:38:00,
2013-02-16 07:43:00,21.3,15.5,30.23,SW,226,4.0,0.0,78,0.00,,,0.00,9,WeatherTracker,2013-02-16 13:43:00,
2013-02-16 07:48:00,21.3,15.8,30.23,SSW,207,5.0,0.0,79,0.00,,,0.00,16,WeatherTracker,2013-02-16 13:48:00,
2013-02-16 07:53:00,21.4,15.9,30.23,SSW,207,3.0,0.0,79,0.00,,,0.00,25,WeatherTracker,2013-02-16 13:53:00,
2013-02-16 07:58:00,21.6,16.1,30.23,SSW,200,8.0,0.0,79,0.00,,,0.00,33,WeatherTracker,2013-02-16 13:58:00,
2013-02-16 08:03:00,21.8,16.3,30.22,SSW,198,7.0,0.0,79,0.00,,,0.00,32,WeatherTracker,2013-02-16 14:03:00,
2013-02-16 08:08:00,22.1,16.3,30.22,SSW,207,4.0,0.0,78,0.00,,,0.00,30,WeatherTracker,2013-02-16 14:08:00,
2013-02-16 08:13:00,22.4,16.6,30.21,SSW,207,7.0,0.0,78,0.00,,,0.00,42,WeatherTracker,2013-02-16 14:13:00,
2013-02-16 08:18:00,22.5,16.4,30.21,South,183,5.0,0.0,77,0.00,,,0.00,40,WeatherTracker,2013-02-16 14:18:00,
2013-02-16 08:23:00,22.6,16.5,30.20,SSW,208,4.0,0.0,77,0.00,,,0.00,30,WeatherTracker,2013-02-16 14:23:00,
2013-02-16 08:28:00,22.5,16.7,30.20,SW,226,5.0,0.0,78,0.00,,,0.00,21,WeatherTracker,2013-02-16 14:28:00,
2013-02-16 08:33:00,22.5,17.0,30.20,South,188,9.0,0.0,79,0.00,,,0.00,18,WeatherTracker,2013-02-16 14:33:00,
2013-02-16 08:38:00,22.6,17.4,30.20,South,176,7.0,0.0,80,0.00,,,0.00,21,WeatherTracker,2013-02-16 14:38:00,
2013-02-16 08:43:00,22.7,17.5,30.20,SSW,195,5.0,0.0,80,0.00,,,0.00,23,WeatherTracker,2013-02-16 14:43:00,
2013-02-16 08:49:00,22.8,17.9,30.20,SSW,205,8.0,0.0,81,0.00,,,0.00,37,WeatherTracker,2013-02-16 14:49:00,
2013-02-16 08:54:00,22.9,18.0,30.20,South,186,6.0,0.0,81,0.00,,,0.00,37,WeatherTracker,2013-02-16 14:54:00,
2013-02-16 08:59:00,23.0,18.1,30.20,SSW,212,9.0,0.0,81,0.00,,,0.00,32,WeatherTracker,2013-02-16 14:59:00,
2013-02-16 09:04:00,23.1,18.2,30.20,SSW,202,7.0,0.0,81,0.00,,,0.00,26,WeatherTracker,2013-02-16 15:04:00,
2013-02-16 09:09:00,23.2,18.5,30.19,South,178,2.0,0.0,82,0.00,,,0.00,25,WeatherTracker,2013-02-16 15:09:00,
2013-02-16 09:14:00,23.2,18.5,30.20,SSW,202,5.0,0.0,82,0.00,,,0.00,33,WeatherTracker,2013-02-16 15:14:00,
2013-02-16 09:19:00,23.2,18.5,30.19,South,183,3.0,0.0,82,0.00,,,0.00,53,WeatherTracker,2013-02-16 15:19:00,
2013-02-16 09:24:00,23.3,18.6,30.20,South,188,9.0,0.0,82,0.00,,,0.00,47,WeatherTracker,2013-02-16 15:24:00,
2013-02-16 09:29:00,23.4,19.0,30.20,South,178,6.0,0.0,83,0.00,,,0.00,56,WeatherTracker,2013-02-16 15:29:00,
2013-02-16 09:34:00,23.5,19.1,30.19,SSW,200,4.0,0.0,83,0.00,,,0.00,62,WeatherTracker,2013-02-16 15:34:00,
2013-02-16 09:39:00,23.7,19.3,30.19,SSW,196,4.0,0.0,83,0.00,,,0.00,77,WeatherTracker,2013-02-16 15:39:00,
2013-02-16 09:44:00,24.0,19.6,30.19,South,179,5.0,0.0,83,0.00,,,0.00,84,WeatherTracker,2013-02-16 15:44:00,
2013-02-16 09:49:00,24.1,20.0,30.19,South,180,5.0,0.0,84,0.00,,,0.00,93,WeatherTracker,2013-02-16 15:49:00,
2013-02-16 09:54:00,24.3,19.9,30.19,SSW,205,3.0,0.0,83,0.00,,,0.00,102,WeatherTracker,2013-02-16 15:54:00,
2013-02-16 09:59:00,24.5,20.1,30.18,SSW,207,5.0,0.0,83,0.00,,,0.00,111,WeatherTracker,2013-02-16 15:59:00,
2013-02-16 10:04:00,24.7,20.0,30.18,SSW,209,5.0,0.0,82,0.00,,,0.00,123,WeatherTracker,2013-02-16 16:04:00,
2013-02-16 10:09:00,25.1,20.4,30.18,South,186,5.0,0.0,82,0.00,,,0.00,165,WeatherTracker,2013-02-16 16:09:00,
2013-02-16 10:14:00,25.2,19.9,30.17,SSW,202,4.0,0.0,80,0.00,,,0.00,171,WeatherTracker,2013-02-16 16:14:00,
2013-02-16 10:19:00,25.2,19.6,30.18,SSW,198,7.0,0.0,79,0.00,,,0.00,146,WeatherTracker,2013-02-16 16:19:00,
2013-02-16 10:24:00,25.6,20.0,30.17,SW,214,7.0,0.0,79,0.00,,,0.00,174,WeatherTracker,2013-02-16 16:24:00,
2013-02-16 10:29:00,25.8,19.6,30.17,SSW,194,6.0,0.0,77,0.00,,,0.00,171,WeatherTracker,2013-02-16 16:29:00,
2013-02-16 10:34:00,26.1,19.6,30.16,SSW,210,11.0,0.0,76,0.00,,,0.00,197,WeatherTracker,2013-02-16 16:34:00,
2013-02-16 10:39:00,26.3,19.8,30.16,SSW,202,10.0,0.0,76,0.00,,,0.00,225,WeatherTracker,2013-02-16 16:39:00,
2013-02-16 10:44:00,26.6,19.8,30.16,SW,222,11.0,0.0,75,0.00,,,0.00,218,WeatherTracker,2013-02-16 16:44:00,
2013-02-16 10:49:00,27.0,19.8,30.15,WSW,257,6.0,0.0,74,0.00,,,0.00,244,WeatherTracker,2013-02-16 16:49:00,
2013-02-16 10:54:00,27.4,19.9,30.15,SSW,210,7.0,0.0,73,0.00,,,0.00,309,WeatherTracker,2013-02-16 16:54:00,
2013-02-16 11:00:00,27.7,19.9,30.14,SSW,200,15.0,0.0,72,0.00,,,0.00,367,WeatherTracker,2013-02-16 17:00:00,
2013-02-16 11:05:00,27.9,19.7,30.14,SSW,207,13.0,0.0,71,0.00,,,0.00,422,WeatherTracker,2013-02-16 17:05:00,
2013-02-16 11:10:00,28.3,20.1,30.14,SSW,201,7.0,0.0,71,0.00,,,0.00,353,WeatherTracker,2013-02-16 17:10:00,
2013-02-16 11:15:00,28.6,20.1,30.14,SSW,212,5.0,0.0,70,0.00,,,0.00,350,WeatherTracker,2013-02-16 17:15:00,
2013-02-16 11:20:00,28.8,19.9,30.14,SW,226,9.0,0.0,69,0.00,,,0.00,369,WeatherTracker,2013-02-16 17:20:00,
2013-02-16 11:25:00,29.2,20.7,30.14,SW,222,6.0,0.0,70,0.00,,,0.00,397,WeatherTracker,2013-02-16 17:25:00,
2013-02-16 11:30:00,29.9,21.3,30.13,SSW,199,2.0,0.0,70,0.00,,,0.00,462,WeatherTracker,2013-02-16 17:30:00,
2013-02-16 11:35:00,30.5,21.2,30.13,WSW,242,4.0,0.0,68,0.00,,,0.00,438,WeatherTracker,2013-02-16 17:35:00,
2013-02-16 11:40:00,31.2,21.9,30.13,SSW,203,8.0,0.0,68,0.00,,,0.00,350,WeatherTracker,2013-02-16 17:40:00,
2013-02-16 11:45:00,31.4,21.7,30.13,WSW,240,5.0,0.0,67,0.00,,,0.00,346,WeatherTracker,2013-02-16 17:45:00,
2013-02-16 11:50:00,31.7,22.0,30.12,SSW,207,7.0,0.0,67,0.00,,,0.00,401,WeatherTracker,2013-02-16 17:50:00,
2013-02-16 11:55:00,32.2,22.5,30.11,SW,234,1.0,0.0,67,0.00,,,0.00,403,WeatherTracker,2013-02-16 17:55:00,
2013-02-16 12:00:00,32.8,23.1,30.11,SW,236,6.0,0.0,67,0.00,,,0.00,396,WeatherTracker,2013-02-16 18:00:00,
2013-02-16 12:05:00,33.3,23.2,30.11,SW,219,6.0,0.0,66,0.00,,,0.00,425,WeatherTracker,2013-02-16 18:05:00,
2013-02-16 12:10:00,34.1,23.9,30.11,South,172,5.0,0.0,66,0.00,,,0.00,441,WeatherTracker,2013-02-16 18:10:00,
2013-02-16 12:15:00,35.1,23.8,30.11,SW,223,4.0,0.0,63,0.00,,,0.00,480,WeatherTracker,2013-02-16 18:15:00,
2013-02-16 12:20:00,35.9,24.5,30.10,West,267,7.0,0.0,63,0.00,,,0.00,497,WeatherTracker,2013-02-16 18:20:00,
2013-02-16 12:25:00,36.3,24.2,30.11,WNW,284,4.0,0.0,61,0.00,,,0.00,462,WeatherTracker,2013-02-16 18:25:00,
2013-02-16 12:30:00,36.7,24.1,30.10,WSW,252,4.0,0.0,60,0.00,,,0.00,448,WeatherTracker,2013-02-16 18:30:00,
2013-02-16 12:35:00,37.2,25.0,30.10,SSW,205,7.0,0.0,61,0.00,,,0.00,708,WeatherTracker,2013-02-16 18:35:00,
2013-02-16 12:40:00,37.8,24.8,30.10,SSW,209,6.0,0.0,59,0.00,,,0.00,559,WeatherTracker,2013-02-16 18:40:00,
2013-02-16 12:45:00,37.9,24.9,30.09,West,277,6.0,0.0,59,0.00,,,0.00,475,WeatherTracker,2013-02-16 18:45:00,
2013-02-16 12:50:00,38.3,24.0,30.09,West,281,5.0,0.0,56,0.00,,,0.00,643,WeatherTracker,2013-02-16 18:50:00,
2013-02-16 12:56:00,38.8,24.9,30.09,WSW,246,4.0,0.0,57,0.00,,,0.00,613,WeatherTracker,2013-02-16 18:56:00,
2013-02-16 13:01:00,39.6,25.2,30.09,West,259,5.0,0.0,56,0.00,,,0.00,673,WeatherTracker,2013-02-16 19:01:00,
2013-02-16 13:06:00,39.8,25.0,30.09,WNW,286,4.0,0.0,55,0.00,,,0.00,707,WeatherTracker,2013-02-16 19:06:00,
2013-02-16 13:11:00,40.5,25.6,30.08,WSW,238,3.0,0.0,55,0.00,,,0.00,645,WeatherTracker,2013-02-16 19:11:00,
2013-02-16 13:16:00,41.1,25.7,30.08,WNW,303,3.0,0.0,54,0.00,,,0.00,656,WeatherTracker,2013-02-16 19:16:00,
2013-02-16 13:21:00,40.8,25.0,30.08,WNW,297,6.0,0.0,53,0.00,,,0.00,615,WeatherTracker,2013-02-16 19:21:00,
2013-02-16 13:26:00,41.4,26.0,30.07,WSW,252,5.0,0.0,54,0.00,,,0.00,610,WeatherTracker,2013-02-16 19:26:00,
2013-02-16 13:31:00,42.3,26.4,30.07,West,262,3.0,0.0,53,0.00,,,0.00,608,WeatherTracker,2013-02-16 19:31:00,
2013-02-16 13:36:00,42.5,26.6,30.07,WSW,254,4.0,0.0,53,0.00,,,0.00,603,WeatherTracker,2013-02-16 19:36:00,
2013-02-16 13:41:00,43.1,27.1,30.06,WSW,251,1.0,0.0,53,0.00,,,0.00,599,WeatherTracker,2013-02-16 19:41:00,
2013-02-16 13:46:00,43.4,27.0,30.07,West,261,5.0,0.0,52,0.00,,,0.00,594,WeatherTracker,2013-02-16 19:46:00,
2013-02-16 13:51:00,43.2,26.3,30.07,WSW,252,6.0,0.0,51,0.00,,,0.00,601,WeatherTracker,2013-02-16 19:51:00,
2013-02-16 13:56:00,43.8,27.3,30.07,West,259,3.0,0.0,52,0.00,,,0.00,585,WeatherTracker,2013-02-16 19:56:00,
2013-02-16 14:01:00,44.1,27.6,30.06,WNW,299,8.0,0.0,52,0.00,,,0.00,578,WeatherTracker,2013-02-16 20:01:00,
2013-02-16 14:06:00,44.4,27.4,30.06,NW,311,8.0,0.0,51,0.00,,,0.00,585,WeatherTracker,2013-02-16 20:06:00,
2013-02-16 14:11:00,44.5,28.0,30.06,WNW,298,4.0,0.0,52,0.00,,,0.00,587,WeatherTracker,2013-02-16 20:11:00,
2013-02-16 14:16:00,44.9,28.4,30.06,NW,311,8.0,0.0,52,0.00,,,0.00,636,WeatherTracker,2013-02-16 20:16:00,
2013-02-16 14:21:00,45.0,28.4,30.06,NNW,338,6.0,0.0,52,0.00,,,0.00,327,WeatherTracker,2013-02-16 20:21:00,
2013-02-16 14:26:00,45.0,28.0,30.06,NW,316,4.0,0.0,51,0.00,,,0.00,691,WeatherTracker,2013-02-16 20:26:00,
2013-02-16 14:31:00,45.1,28.1,30.05,NW,311,6.0,0.0,51,0.00,,,0.00,675,WeatherTracker,2013-02-16 20:31:00,
2013-02-16 14:36:00,45.5,28.9,30.05,WNW,303,5.0,0.0,52,0.00,,,0.00,524,WeatherTracker,2013-02-16 20:36:00,
2013-02-16 14:42:00,46.1,28.5,30.05,WNW,303,1.0,0.0,50,0.00,,,0.00,526,WeatherTracker,2013-02-16 20:42:00,
2013-02-16 14:47:00,46.4,28.8,30.05,WNW,293,5.0,0.0,50,0.00,,,0.00,508,WeatherTracker,2013-02-16 20:47:00,
2013-02-16 14:52:00,46.3,28.7,30.05,North,360,8.0,0.0,50,0.00,,,0.00,499,WeatherTracker,2013-02-16 20:52:00,
2013-02-16 14:57:00,46.3,28.7,30.04,NNE,22,4.0,0.0,50,0.00,,,0.00,490,WeatherTracker,2013-02-16 20:57:00,
2013-02-16 15:02:00,46.8,28.7,30.04,NW,310,4.0,0.0,49,0.00,,,0.00,478,WeatherTracker,2013-02-16 21:02:00,
2013-02-16 15:07:00,47.5,29.8,30.04,NW,314,0.0,0.0,50,0.00,,,0.00,468,WeatherTracker,2013-02-16 21:07:00,
2013-02-16 15:12:00,48.3,29.5,30.04,NW,313,7.0,0.0,48,0.00,,,0.00,459,WeatherTracker,2013-02-16 21:12:00,
2013-02-16 15:17:00,48.3,29.5,30.04,WNW,294,5.0,0.0,48,0.00,,,0.00,446,WeatherTracker,2013-02-16 21:17:00,
2013-02-16 15:22:00,48.5,30.2,30.03,North,355,2.0,0.0,49,0.00,,,0.00,436,WeatherTracker,2013-02-16 21:22:00,
2013-02-16 15:27:00,49.0,30.2,30.03,WNW,303,3.0,0.0,48,0.00,,,0.00,425,WeatherTracker,2013-02-16 21:27:00,
2013-02-16 15:32:00,49.0,30.2,30.04,NNW,344,5.0,0.0,48,0.00,,,0.00,415,WeatherTracker,2013-02-16 21:32:00,
2013-02-16 15:37:00,49.3,30.4,30.03,North,355,1.0,0.0,48,0.00,,,0.00,403,WeatherTracker,2013-02-16 21:37:00,
2013-02-16 15:42:00,49.3,29.9,30.03,WNW,300,4.0,0.0,47,0.00,,,0.00,387,WeatherTracker,2013-02-16 21:42:00,
2013-02-16 15:47:00,49.7,30.8,30.03,WNW,300,3.0,0.0,48,0.00,,,0.00,376,WeatherTracker,2013-02-16 21:47:00,
2013-02-16 15:52:00,49.6,30.7,30.03,North,10,5.0,0.0,48,0.00,,,0.00,360,WeatherTracker,2013-02-16 21:52:00,
2013-02-16 15:57:00,49.6,30.7,30.03,WNW,299,7.0,0.0,48,0.00,,,0.00,348,WeatherTracker,2013-02-16 21:57:00,
2013-02-16 16:02:00,49.5,30.6,30.03,NW,325,6.0,0.0,48,0.00,,,0.00,336,WeatherTracker,2013-02-16 22:02:00,
2013-02-16 16:07:00,49.7,30.8,30.03,NNE,15,2.0,0.0,48,0.00,,,0.00,322,WeatherTracker,2013-02-16 22:07:00,
2013-02-16 16:12:00,49.6,30.2,30.03,NW,322,4.0,0.0,47,0.00,,,0.00,309,WeatherTracker,2013-02-16 22:12:00,
2013-02-16 16:17:00,49.5,30.6,30.03,NW,322,3.0,0.0,48,0.00,,,0.00,301,WeatherTracker,2013-02-16 22:17:00,
2013-02-16 16:23:00,49.7,30.8,30.03,NW,322,0.0,0.0,48,0.00,,,0.00,276,WeatherTracker,2013-02-16 22:23:00,
2013-02-16 16:27:00,49.6,30.7,30.03,NNW,332,3.0,0.0,48,0.00,,,0.00,260,WeatherTracker,2013-02-16 22:27:00,
2013-02-16 16:33:00,49.6,30.7,30.03,NNW,332,2.0,0.0,48,0.00,,,0.00,241,WeatherTracker,2013-02-16 22:33:00,
2013-02-16 16:38:00,49.7,30.8,30.03,North,351,2.0,0.0,48,0.00,,,0.00,225,WeatherTracker,2013-02-16 22:38:00,
2013-02-16 16:43:00,49.9,31.0,30.02,North,355,3.0,0.0,48,0.00,,,0.00,209,WeatherTracker,2013-02-16 22:43:00,
2013-02-16 16:48:00,49.9,31.0,30.02,North,355,3.0,0.0,48,0.00,,,0.00,188,WeatherTracker,2013-02-16 22:48:00,
2013-02-16 16:53:00,49.6,30.7,30.02,North,355,2.0,0.0,48,0.00,,,0.00,171,WeatherTracker,2013-02-16 22:53:00,
2013-02-16 16:58:00,49.2,30.9,30.03,North,355,3.0,0.0,49,0.00,,,0.00,151,WeatherTracker,2013-02-16 22:58:00,
2013-02-16 17:03:00,49.1,30.8,30.03,North,355,2.0,0.0,49,0.00,,,0.00,135,WeatherTracker,2013-02-16 23:03:00,
2013-02-16 17:08:00,49.1,30.8,30.02,North,355,0.0,0.0,49,0.00,,,0.00,120,WeatherTracker,2013-02-16 23:08:00,
2013-02-16 17:13:00,49.4,31.0,30.02,North,355,2.0,0.0,49,0.00,,,0.00,40,WeatherTracker,2013-02-16 23:13:00,
2013-02-16 17:18:00,48.9,30.6,30.02,North,355,1.0,0.0,49,0.00,,,0.00,46,WeatherTracker,2013-02-16 23:18:00,
2013-02-16 17:23:00,48.5,30.2,30.02,North,355,0.0,0.0,49,0.00,,,0.00,25,WeatherTracker,2013-02-16 23:23:00,
2013-02-16 17:28:00,47.8,30.1,30.02,North,355,0.0,0.0,50,0.00,,,0.00,28,WeatherTracker,2013-02-16 23:28:00,
2013-02-16 17:33:00,47.4,30.2,30.02,North,355,0.0,0.0,51,0.00,,,0.00,30,WeatherTracker,2013-02-16 23:33:00,
2013-02-16 17:38:00,47.0,29.8,30.02,North,355,0.0,0.0,51,0.00,,,0.00,23,WeatherTracker,2013-02-16 23:38:00,
2013-02-16 17:43:00,46.6,29.9,30.02,North,355,0.0,0.0,52,0.00,,,0.00,26,WeatherTracker,2013-02-16 23:43:00,
2013-02-16 17:48:00,46.4,30.2,30.02,North,355,0.0,0.0,53,0.00,,,0.00,19,WeatherTracker,2013-02-16 23:48:00,
2013-02-16 17:53:00,46.3,30.1,30.02,North,355,0.0,0.0,53,0.00,,,0.00,14,WeatherTracker,2013-02-16 23:53:00,
2013-02-16 17:58:00,46.0,29.8,30.03,North,355,0.0,0.0,53,0.00,,,0.00,12,WeatherTracker,2013-02-16 23:58:00,
2013-02-16 18:04:00,45.6,29.5,30.02,North,355,0.0,0.0,53,0.00,,,0.00,9,WeatherTracker,2013-02-17 00:04:00,
2013-02-16 18:09:00,45.3,29.6,30.02,North,355,0.0,0.0,54,0.00,,,0.00,7,WeatherTracker,2013-02-17 00:09:00,
2013-02-16 18:14:00,44.8,29.6,30.03,North,355,0.0,0.0,55,0.00,,,0.00,5,WeatherTracker,2013-02-17 00:14:00,
2013-02-16 18:19:00,44.3,29.6,30.03,North,355,0.0,0.0,56,0.00,,,0.00,0,WeatherTracker,2013-02-17 00:19:00,
2013-02-16 18:24:00,43.9,29.2,30.03,North,355,0.0,0.0,56,0.00,,,0.00,0,WeatherTracker,2013-02-17 00:24:00,
2013-02-16 18:29:00,43.4,29.6,30.03,North,355,0.0,0.0,58,0.00,,,0.00,0,WeatherTracker,2013-02-17 00:29:00,
2013-02-16 18:34:00,43.0,28.8,30.03,North,355,0.0,0.0,57,0.00,,,0.00,0,WeatherTracker,2013-02-17 00:34:00,
2013-02-16 18:39:00,42.4,28.7,30.03,North,355,0.0,0.0,58,0.00,,,0.00,0,WeatherTracker,2013-02-17 00:39:00,
2013-02-16 18:44:00,41.8,28.5,30.03,North,355,0.0,0.0,59,0.00,,,0.00,0,WeatherTracker,2013-02-17 00:44:00,
2013-02-16 18:49:00,41.7,28.9,30.03,North,355,0.0,0.0,60,0.00,,,0.00,0,WeatherTracker,2013-02-17 00:49:00,
2013-02-16 18:54:00,41.6,28.8,30.03,North,355,0.0,0.0,60,0.00,,,0.00,0,WeatherTracker,2013-02-17 00:54:00,
2013-02-16 18:59:00,41.3,28.9,30.03,North,355,0.0,0.0,61,0.00,,,0.00,0,WeatherTracker,2013-02-17 00:59:00,
2013-02-16 19:04:00,41.2,28.8,30.02,North,355,0.0,0.0,61,0.00,,,0.00,0,WeatherTracker,2013-02-17 01:04:00,
2013-02-16 19:09:00,41.1,28.7,30.02,North,355,2.0,0.0,61,0.00,,,0.00,0,WeatherTracker,2013-02-17 01:09:00,
2013-02-16 19:14:00,41.4,29.4,30.02,North,355,0.0,0.0,62,0.00,,,0.00,0,WeatherTracker,2013-02-17 01:14:00,
2013-02-16 19:19:00,41.7,29.3,30.02,North,355,1.0,0.0,61,0.00,,,0.00,0,WeatherTracker,2013-02-17 01:19:00,
2013-02-16 19:24:00,41.5,29.1,30.02,North,355,0.0,0.0,61,0.00,,,0.00,0,WeatherTracker,2013-02-17 01:24:00,
2013-02-16 19:30:00,41.3,29.3,30.02,North,355,0.0,0.0,62,0.00,,,0.00,0,WeatherTracker,2013-02-17 01:30:00,
2013-02-16 19:35:00,41.1,29.1,30.02,North,355,0.0,0.0,62,0.00,,,0.00,0,WeatherTracker,2013-02-17 01:35:00,
2013-02-16 19:40:00,40.6,28.6,30.02,North,355,1.0,0.0,62,0.00,,,0.00,0,WeatherTracker,2013-02-17 01:40:00,
2013-02-16 19:45:00,39.9,28.3,30.02,North,355,1.0,0.0,63,0.00,,,0.00,0,WeatherTracker,2013-02-17 01:45:00,
2013-02-16 19:50:00,39.2,28.1,30.02,North,355,0.0,0.0,64,0.00,,,0.00,0,WeatherTracker,2013-02-17 01:50:00,
2013-02-16 19:55:00,38.6,27.9,30.02,North,355,0.0,0.0,65,0.00,,,0.00,0,WeatherTracker,2013-02-17 01:55:00,
2013-02-16 20:00:00,38.1,27.4,30.02,North,355,0.0,0.0,65,0.00,,,0.00,0,WeatherTracker,2013-02-17 02:00:00,
2013-02-16 20:05:00,37.5,27.2,30.02,North,355,0.0,0.0,66,0.00,,,0.00,0,WeatherTracker,2013-02-17 02:05:00,
2013-02-16 20:10:00,36.9,27.0,30.02,North,355,0.0,0.0,67,0.00,,,0.00,0,WeatherTracker,2013-02-17 02:10:00,
2013-02-16 20:15:00,36.4,26.9,30.02,North,355,0.0,0.0,68,0.00,,,0.00,0,WeatherTracker,2013-02-17 02:15:00,
2013-02-16 20:20:00,36.0,26.5,30.02,North,355,0.0,0.0,68,0.00,,,0.00,0,WeatherTracker,2013-02-17 02:20:00,
2013-02-16 20:25:00,35.7,26.5,30.02,North,355,2.0,0.0,69,0.00,,,0.00,0,WeatherTracker,2013-02-17 02:25:00,
2013-02-16 20:30:00,35.5,26.4,30.02,North,355,0.0,0.0,69,0.00,,,0.00,0,WeatherTracker,2013-02-17 02:30:00,
2013-02-16 20:35:00,35.1,26.3,30.02,North,355,0.0,0.0,70,0.00,,,0.00,0,WeatherTracker,2013-02-17 02:35:00,
2013-02-16 20:40:00,34.8,26.0,30.02,North,355,0.0,0.0,70,0.00,,,0.00,0,WeatherTracker,2013-02-17 02:40:00,
2013-02-16 20:45:00,34.4,26.0,30.02,North,355,0.0,0.0,71,0.00,,,0.00,0,WeatherTracker,2013-02-17 02:45:00,
2013-02-16 20:50:00,34.4,26.0,30.02,North,355,0.0,0.0,71,0.00,,,0.00,0,WeatherTracker,2013-02-17 02:50:00,
2013-02-16 20:55:00,34.3,26.2,30.02,North,355,0.0,0.0,72,0.00,,,0.00,0,WeatherTracker,2013-02-17 02:55:00,
2013-02-16 21:00:00,34.1,26.0,30.02,North,355,0.0,0.0,72,0.00,,,0.00,0,WeatherTracker,2013-02-17 03:00:00,
2013-02-16 21:05:00,33.8,26.1,30.02,North,355,0.0,0.0,73,0.00,,,0.00,0,WeatherTracker,2013-02-17 03:05:00,
2013-02-16 21:10:00,33.5,25.8,30.01,North,355,0.0,0.0,73,0.00,,,0.00,0,WeatherTracker,2013-02-17 03:10:00,
2013-02-16 21:16:00,33.2,25.5,30.01,North,355,0.0,0.0,73,0.00,,,0.00,0,WeatherTracker,2013-02-17 03:16:00,
2013-02-16 21:21:00,33.2,25.8,30.01,North,355,0.0,0.0,74,0.00,,,0.00,0,WeatherTracker,2013-02-17 03:21:00,
2013-02-16 21:26:00,33.0,25.3,30.01,North,360,0.0,0.0,73,0.00,,,0.00,0,WeatherTracker,2013-02-17 03:26:00,
2013-02-16 21:31:00,32.7,25.3,30.02,North,360,0.0,0.0,74,0.00,,,0.00,0,WeatherTracker,2013-02-17 03:31:00,
2013-02-16 21:36:00,32.7,25.7,30.02,North,360,0.0,0.0,75,0.00,,,0.00,0,WeatherTracker,2013-02-17 03:36:00,
2013-02-16 21:41:00,32.6,25.6,30.02,North,360,0.0,0.0,75,0.00,,,0.00,0,WeatherTracker,2013-02-17 03:41:00,
2013-02-16 21:46:00,32.3,25.0,30.02,North,360,0.0,0.0,74,0.00,,,0.00,0,WeatherTracker,2013-02-17 03:46:00,
2013-02-16 21:51:00,32.2,25.5,30.01,North,360,0.0,0.0,76,0.00,,,0.00,0,WeatherTracker,2013-02-17 03:51:00,
2013-02-16 21:56:00,32.1,25.4,30.01,North,360,0.0,0.0,76,0.00,,,0.00,0,WeatherTracker,2013-02-17 03:56:00,
2013-02-16 22:01:00,31.7,25.0,30.01,North,360,0.0,0.0,76,0.00,,,0.00,0,WeatherTracker,2013-02-17 04:01:00,
2013-02-16 22:06:00,31.5,24.8,30.01,North,360,0.0,0.0,76,0.00,,,0.00,0,WeatherTracker,2013-02-17 04:06:00,
2013-02-16 22:11:00,30.9,24.2,30.01,North,360,0.0,0.0,76,0.00,,,0.00,0,WeatherTracker,2013-02-17 04:11:00,
2013-02-16 22:16:00,30.7,24.4,30.01,North,360,0.0,0.0,77,0.00,,,0.00,0,WeatherTracker,2013-02-17 04:16:00,
2013-02-16 22:21:00,30.5,24.2,30.01,North,360,0.0,0.0,77,0.00,,,0.00,0,WeatherTracker,2013-02-17 04:21:00,
2013-02-16 22:27:00,30.3,24.3,30.01,North,360,0.0,0.0,78,0.00,,,0.00,0,WeatherTracker,2013-02-17 04:27:00,
2013-02-16 22:32:00,30.1,24.1,30.01,North,360,0.0,0.0,78,0.00,,,0.00,0,WeatherTracker,2013-02-17 04:32:00,
2013-02-16 22:37:00,29.6,23.6,30.01,North,360,0.0,0.0,78,0.00,,,0.00,0,WeatherTracker,2013-02-17 04:37:00,
2013-02-16 22:42:00,29.3,23.6,30.01,North,360,0.0,0.0,79,0.00,,,0.00,0,WeatherTracker,2013-02-17 04:42:00,
2013-02-16 22:47:00,29.4,24.0,30.00,North,360,0.0,0.0,80,0.00,,,0.00,0,WeatherTracker,2013-02-17 04:47:00,
2013-02-16 22:52:00,29.5,24.1,30.01,North,360,0.0,0.0,80,0.00,,,0.00,0,WeatherTracker,2013-02-17 04:52:00,
2013-02-16 22:57:00,29.4,24.0,30.01,North,360,0.0,0.0,80,0.00,,,0.00,0,WeatherTracker,2013-02-17 04:57:00,
2013-02-16 23:00:00,29.3,23.9,30.00,North,360,0.0,0.0,80,0.00,,,0.00,0,WeatherTracker,2013-02-17 05:00:00,
2013-02-16 23:01:00,29.3,23.9,30.00,North,360,0.0,0.0,80,0.00,,,0.00,0,WeatherTracker,2013-02-17 05:01:00,
2013-02-16 23:06:00,29.2,23.8,30.00,North,360,0.0,0.0,80,0.00,,,0.00,0,WeatherTracker,2013-02-17 05:06:00,
2013-02-16 23:11:00,29.0,23.3,30.00,North,360,0.0,0.0,79,0.00,,,0.00,0,WeatherTracker,2013-02-17 05:11:00,
2013-02-16 23:16:00,29.0,23.3,30.00,North,360,0.0,0.0,79,0.00,,,0.00,0,WeatherTracker,2013-02-17 05:16:00,
2013-02-16 23:21:00,29.0,23.3,30.00,North,360,0.0,0.0,79,0.00,,,0.00,0,WeatherTracker,2013-02-17 05:21:00,
2013-02-16 23:26:00,28.8,23.1,30.00,North,360,0.0,0.0,79,0.00,,,0.00,0,WeatherTracker,2013-02-17 05:26:00,
2013-02-16 23:31:00,28.8,23.1,30.00,North,360,1.0,0.0,79,0.00,,,0.00,0,WeatherTracker,2013-02-17 05:31:00,
2013-02-16 23:36:00,28.8,23.4,29.99,North,360,0.0,0.0,80,0.00,,,0.00,0,WeatherTracker,2013-02-17 05:36:00,
2013-02-16 23:41:00,28.6,22.9,30.00,North,360,1.0,0.0,79,0.00,,,0.00,0,WeatherTracker,2013-02-17 05:41:00,
2013-02-16 23:46:00,28.4,22.4,30.00,North,360,0.0,0.0,78,0.00,,,0.00,0,WeatherTracker,2013-02-17 05:46:00,
2013-02-16 23:51:00,28.3,22.3,30.00,North,360,0.0,0.0,78,0.00,,,0.00,0,WeatherTracker,2013-02-17 05:51:00,
2013-02-16 23:56:00,28.0,22.0,30.00,North,360,0.0,0.0,78,0.00,,,0.00,0,WeatherTracker,2013-02-17 05:56:00,